Aviation Digital Data Service (ADDS)

Output produced by METARs form (2058 UTC 29 May 2017)
found at http://www.aviationweather.gov/adds/metars/
 
FABL 292000Z AUTO 22004KT 9999 ///////// 04/M03 Q1031
TAF FABL 291600Z 2918/3018 02008KT CAVOK TX20/3012ZTNM01/3004Z
       
FACT 292000Z VRB02KT CAVOK 11/08 Q1021 NOSIG
TAF FACT 291600Z 2918/3024 16009KT CAVOK 
     BECMG 2920/2922 VRB03KT 
     BECMG 3018/3020 35013KT TX26/3012ZTN10/3006Z
       
FAEL 291800Z 04007KT 360V070 CAVOK 16/12 Q1029
FAGG 291800Z 03005KT CAVOK 12/12 Q1024
TAF FAGG 291600Z 2918/3018 09006KT CAVOK 
     BECMG 2922/2924 35012KT TX26/3012ZTN12/3004Z
       
FAHS 291900Z AUTO 18004KT //// 13/08 Q1032
FAKM 292000Z AUTO 02004KT //// // ////// 09/03 Q1031
FALW 292000Z AUTO 16008KT //// // ////// 17/03 Q1020
FALA 292000Z 14004KT CAVOK 11/M00 Q1034 NOSIG
TAF FALA 291600Z 2918/3018 VRB03KT CAVOK 
     BECMG 2922/2924 09006KT SCT015 
     PROB40 
     TEMPO 3002/3006 BKN010 
     BECMG 3006/3008 32008KT SCT035 TX18/3012ZTN07/3004Z
       
FAMM 292000Z AUTO 05004KT //// // ////// 08/05 Q1032
FAOB 292000Z AUTO 34004KT //// // ////// 10/09 Q1022
FAPN 292000Z AUTO 23002KT //// 08/04 Q1031
FAPE 292000Z 04009KT CAVOK 16/15 Q1027 NOSIG
TAF FAPE 291600Z 2918/3018 07005KT CAVOK 
     BECMG 2922/2924 34005KT 
     BECMG 3012/3014 27005KT 
     BECMG 3016/3018 VRB02KT TX27/3012ZTN10/3004Z
       
FAGM 291500Z 09005KT CAVOK 13/M02 Q1031
FASI 292000Z AUTO /////KT //// // ////// 03/M00 Q1037
FAUT 292000Z AUTO 13002KT //// // ////// 09/08 Q1030
FAUP 292000Z AUTO 01008KT //// // ////// 16/05 Q1027
TAF FAUP 291600Z 2918/3018 02005KT CAVOK 
     BECMG 3007/3009 36015KT TX25/3012ZTN08/3004Z
       
FAWK 292000Z AUTO 10006KT //// // ////// ///// Q1033
FAWB 292000Z AUTO 13002KT //// 11/02 Q1031